Time;durP1;ratioP1;P1;durP2;ratioP2;P2;SDS_P1;SDS_P2;PMS_P1;PMS_P2;Temp;Humidity;BMP_temperature;BMP_pressure;BME280_temperature;BME280_humidity;BME280_pressure;Samples;Min_cycle;Max_cycle;Signal;HPM_P1;HPM_P2
2021/12/13 00:01:18;;;;;;;4.00;2.65;;;9.50;99.90;;;;;;5096506;28;20039;-60
2021/12/13 00:03:53;;;;;;;4.28;2.47;;;9.50;99.90;;;;;;5107795;27;20071;-59
2021/12/13 00:06:31;;;;;;;4.30;2.70;;;9.50;99.90;;;;;;5096547;28;20036;-60
2021/12/13 00:09:03;;;;;;;4.38;2.80;;;9.60;99.90;;;;;;5108233;28;20046;-59
2021/12/13 00:11:34;;;;;;;4.40;2.75;;;9.50;99.90;;;;;;5093337;28;20036;-59
2021/12/13 00:14:09;;;;;;;7.45;3.22;;;9.50;99.90;;;;;;5072923;28;20064;-59
2021/12/13 00:16:41;;;;;;;4.65;2.97;;;9.40;99.90;;;;;;5072708;28;20363;-59
2021/12/13 00:19:14;;;;;;;5.70;2.63;;;9.40;99.90;;;;;;5115545;28;20385;-60
2021/12/13 00:21:56;;;;;;;4.63;3.05;;;9.40;99.90;;;;;;5080471;28;20110;-59
2021/12/13 00:24:31;;;;;;;5.93;3.33;;;9.40;99.90;;;;;;5109201;28;20474;-59
2021/12/13 00:27:15;;;;;;;5.20;3.10;;;9.30;99.90;;;;;;5096426;28;20371;-59
2021/12/13 00:29:52;;;;;;;9.05;3.28;;;9.30;99.90;;;;;;5090738;28;20036;-59
2021/12/13 00:32:45;;;;;;;5.22;2.50;;;9.30;99.90;;;;;;5074112;28;20141;-59
2021/12/13 00:35:29;;;;;;;4.05;2.30;;;9.20;99.90;;;;;;5113765;28;20076;-59
2021/12/13 00:38:01;;;;;;;3.90;2.40;;;9.20;99.90;;;;;;5064346;28;20052;-59
2021/12/13 00:40:41;;;;;;;6.10;3.35;;;9.20;99.90;;;;;;5093053;28;20058;-59
2021/12/13 00:43:32;;;;;;;5.25;2.92;;;9.10;99.90;;;;;;5089462;28;20516;-60
2021/12/13 00:46:05;;;;;;;5.45;2.92;;;9.10;99.90;;;;;;5066634;28;20420;-59
2021/12/13 00:48:35;;;;;;;4.72;2.97;;;9.10;99.90;;;;;;5094789;28;20042;-59
2021/12/13 00:51:10;;;;;;;6.38;3.30;;;9.10;99.90;;;;;;5112509;28;20048;-59
2021/12/13 00:53:43;;;;;;;5.63;3.15;;;9.10;99.90;;;;;;5102539;28;20070;-59
2021/12/13 00:56:44;;;;;;;5.20;2.92;;;9.10;99.90;;;;;;5095823;28;20406;-59
2021/12/13 00:59:34;;;;;;;10.05;3.53;;;9.00;99.90;;;;;;5099104;28;20056;-59
2021/12/13 01:02:25;;;;;;;5.30;2.67;;;9.00;99.90;;;;;;5096001;28;20035;-59
2021/12/13 01:04:56;;;;;;;6.72;2.63;;;9.00;99.90;;;;;;5078993;28;20043;-59
2021/12/13 01:08:00;;;;;;;4.82;2.15;;;9.10;99.90;;;;;;5113725;28;20051;-60
2021/12/13 01:10:53;;;;;;;7.53;3.53;;;9.10;99.90;;;;;;5110413;28;20097;-60
2021/12/13 01:13:25;;;;;;;4.57;3.15;;;9.10;99.90;;;;;;5111270;28;20058;-59
2021/12/13 01:16:14;;;;;;;5.00;3.00;;;9.10;99.90;;;;;;5087744;28;20061;-59
2021/12/13 01:19:02;;;;;;;4.68;2.78;;;8.90;99.90;;;;;;5103235;27;20032;-59
2021/12/13 01:21:57;;;;;;;3.42;2.10;;;8.90;99.90;;;;;;5101652;28;20039;-59
2021/12/13 01:27:38;;;;;;;4.78;2.95;;;8.80;99.90;;;;;;5103036;28;20039;-59
2021/12/13 01:30:09;;;;;;;5.22;2.67;;;8.90;99.90;;;;;;5112795;28;20028;-59
2021/12/13 01:32:58;;;;;;;4.93;2.95;;;8.90;99.90;;;;;;5075534;28;20504;-59
2021/12/13 01:35:30;;;;;;;5.45;2.83;;;8.90;99.90;;;;;;5093946;28;20089;-59
2021/12/13 01:38:05;;;;;;;7.18;2.67;;;8.90;99.90;;;;;;5105749;28;20036;-59
2021/12/13 01:40:35;;;;;;;6.72;3.63;;;8.90;99.90;;;;;;5113172;27;20488;-59
2021/12/13 01:43:15;;;;;;;4.90;2.55;;;8.90;99.90;;;;;;5094800;28;20122;-59
2021/12/13 01:45:46;;;;;;;11.98;3.35;;;9.00;99.90;;;;;;5094228;28;20043;-59
2021/12/13 01:48:24;;;;;;;4.53;2.40;;;9.00;99.90;;;;;;5110535;28;20032;-61
2021/12/13 01:51:04;;;;;;;4.95;2.65;;;9.00;99.90;;;;;;5089713;27;20062;-59
2021/12/13 01:53:38;;;;;;;4.90;2.35;;;9.00;99.90;;;;;;5078269;28;20528;-60
2021/12/13 01:56:52;;;;;;;3.92;2.30;;;9.00;99.90;;;;;;5115203;27;20040;-60
2021/12/13 01:59:41;;;;;;;3.85;2.85;;;9.00;99.90;;;;;;5107170;28;20127;-59
2021/12/13 02:02:12;;;;;;;4.35;2.15;;;9.00;99.90;;;;;;5094714;28;20048;-59
2021/12/13 02:04:42;;;;;;;5.20;2.40;;;9.10;99.90;;;;;;5110867;28;20027;-59
2021/12/13 02:07:11;;;;;;;8.32;2.78;;;9.10;99.90;;;;;;5089938;28;20036;-59
2021/12/13 02:09:43;;;;;;;5.32;2.67;;;9.10;99.90;;;;;;5112257;28;20053;-59
2021/12/13 02:12:17;;;;;;;4.82;2.90;;;9.10;99.90;;;;;;5103599;28;20076;-59
2021/12/13 02:16:55;;;;;;;4.60;2.67;;;9.10;99.90;;;;;;5074762;28;20127;-60
2021/12/13 02:17:40;;;;;;;6.38;3.20;;;9.10;99.90;;;;;;5102527;28;20071;-59
2021/12/13 02:20:17;;;;;;;5.68;2.40;;;9.10;99.90;;;;;;5074052;28;20370;-60
2021/12/13 02:22:50;;;;;;;5.32;2.92;;;9.10;99.90;;;;;;5089808;28;20055;-60
2021/12/13 02:25:34;;;;;;;4.05;2.80;;;9.10;99.90;;;;;;5120779;28;20046;-59
2021/12/13 02:28:11;;;;;;;5.25;2.47;;;9.10;99.90;;;;;;5100853;28;20048;-59
2021/12/13 02:30:47;;;;;;;10.18;3.63;;;9.10;99.90;;;;;;5111445;28;20035;-59
2021/12/13 02:33:18;;;;;;;6.03;2.58;;;9.10;99.90;;;;;;5110761;28;20036;-59
2021/12/13 02:35:54;;;;;;;7.07;3.17;;;9.10;99.90;;;;;;5107968;28;20373;-59
2021/12/13 02:38:23;;;;;;;7.65;3.55;;;9.10;99.90;;;;;;5090944;28;20036;-59
2021/12/13 02:40:51;;;;;;;4.53;3.00;;;9.10;99.90;;;;;;5093578;28;20123;-59
2021/12/13 02:43:24;;;;;;;12.68;4.00;;;9.10;99.90;;;;;;5112669;28;20043;-59
2021/12/13 02:45:56;;;;;;;4.20;2.70;;;9.10;99.90;;;;;;5073456;28;20048;-59
2021/12/13 02:48:26;;;;;;;6.70;3.00;;;9.10;99.90;;;;;;5101855;28;20044;-59
2021/12/13 02:50:59;;;;;;;7.60;3.83;;;9.10;99.90;;;;;;5105616;28;20114;-59
2021/12/13 02:53:39;;;;;;;5.00;2.75;;;9.10;99.90;;;;;;5092860;28;20378;-59
2021/12/13 02:56:07;;;;;;;3.92;2.53;;;9.00;99.90;;;;;;5108995;28;20040;-59
2021/12/13 02:58:36;;;;;;;5.78;3.13;;;9.00;99.90;;;;;;5111317;28;20031;-60
2021/12/13 03:01:12;;;;;;;3.53;2.30;;;9.00;99.90;;;;;;5082506;28;20063;-59
2021/12/13 03:03:47;;;;;;;5.22;2.90;;;9.00;99.90;;;;;;5098878;28;20093;-59
2021/12/13 03:06:19;;;;;;;5.80;2.33;;;8.90;99.90;;;;;;5117582;28;20039;-60
2021/12/13 03:08:53;;;;;;;4.70;2.25;;;9.00;99.90;;;;;;5099573;28;20055;-59
2021/12/13 03:11:27;;;;;;;4.82;2.70;;;9.00;99.90;;;;;;5081683;28;20073;-59
2021/12/13 03:14:00;;;;;;;6.95;2.15;;;9.00;99.90;;;;;;5117431;28;20092;-59
2021/12/13 03:16:32;;;;;;;5.40;2.17;;;9.00;99.90;;;;;;5099189;28;20366;-59
2021/12/13 03:19:23;;;;;;;3.13;2.10;;;9.00;99.90;;;;;;5087871;28;20050;-60
2021/12/13 03:22:25;;;;;;;4.22;2.60;;;9.00;99.90;;;;;;5101603;28;20431;-60
2021/12/13 03:25:14;;;;;;;5.13;2.25;;;9.00;99.90;;;;;;5117292;28;20039;-59
2021/12/13 03:28:22;;;;;;;3.25;2.47;;;9.00;99.90;;;;;;5099076;28;20044;-59
2021/12/13 03:31:02;;;;;;;4.05;2.47;;;9.00;99.90;;;;;;4998334;28;20049;-59
2021/12/13 03:33:35;;;;;;;5.05;2.90;;;9.00;99.90;;;;;;5014541;28;20069;-59
2021/12/13 03:36:12;;;;;;;4.00;2.20;;;9.00;99.90;;;;;;5077559;28;20435;-59
2021/12/13 03:38:45;;;;;;;7.20;2.97;;;9.00;99.90;;;;;;5116926;28;20074;-59
2021/12/13 03:41:20;;;;;;;4.13;2.17;;;8.90;99.90;;;;;;5116804;28;20088;-60
2021/12/13 03:44:02;;;;;;;3.70;2.17;;;8.90;99.90;;;;;;5098850;28;20047;-59
2021/12/13 03:46:33;;;;;;;4.55;1.95;;;8.90;99.90;;;;;;5098521;28;20496;-59
2021/12/13 03:49:05;;;;;;;3.78;2.33;;;9.00;99.90;;;;;;5098928;28;20085;-59
2021/12/13 03:51:36;;;;;;;3.95;2.53;;;9.00;99.90;;;;;;5098952;28;20047;-59
2021/12/13 03:54:07;;;;;;;6.65;2.10;;;9.00;99.90;;;;;;5116490;28;20055;-59
2021/12/13 03:56:44;;;;;;;4.00;2.40;;;9.00;99.90;;;;;;5116725;28;20126;-59
2021/12/13 03:59:19;;;;;;;4.20;2.30;;;9.00;99.90;;;;;;5116401;28;20115;-60
2021/12/13 04:01:58;;;;;;;4.07;2.38;;;9.00;99.90;;;;;;5081781;28;20389;-59
2021/12/13 04:04:31;;;;;;;2.67;2.10;;;9.10;99.90;;;;;;5098372;28;20035;-59
2021/12/13 04:07:13;;;;;;;4.82;2.15;;;9.10;99.90;;;;;;5115006;28;20071;-59
2021/12/13 04:09:43;;;;;;;4.80;2.70;;;9.10;99.90;;;;;;5098459;28;20121;-59
2021/12/13 04:12:14;;;;;;;7.40;2.45;;;9.10;99.90;;;;;;5098320;28;20108;-60
2021/12/13 04:14:52;;;;;;;5.38;2.42;;;9.10;99.90;;;;;;5098249;28;20081;-59
2021/12/13 04:17:57;;;;;;;3.63;2.08;;;9.10;99.90;;;;;;5098315;28;20039;-59
2021/12/13 04:20:36;;;;;;;6.18;2.92;;;9.10;99.90;;;;;;5081275;28;20413;-59
2021/12/13 04:23:09;;;;;;;6.85;2.75;;;9.10;99.90;;;;;;5098096;28;20047;-59
2021/12/13 04:25:40;;;;;;;5.43;2.65;;;9.10;99.90;;;;;;5098147;28;20359;-59
2021/12/13 04:28:17;;;;;;;3.60;2.47;;;9.10;99.90;;;;;;5116094;28;20074;-59
2021/12/13 04:30:50;;;;;;;;;;;9.10;99.90;;;;;;5098644;28;20043;-59
2021/12/13 04:33:40;;;;;;;4.93;2.63;;;9.10;99.90;;;;;;5098030;28;19916;-59
2021/12/13 04:36:17;;;;;;;4.40;2.08;;;9.00;99.90;;;;;;5097949;28;20134;-59
2021/12/13 04:38:52;;;;;;;3.70;2.97;;;9.00;99.90;;;;;;5115862;28;20093;-60
2021/12/13 04:41:39;;;;;;;3.75;2.35;;;8.90;99.90;;;;;;5097743;28;20048;-59
2021/12/13 04:44:10;;;;;;;5.30;2.30;;;8.90;99.90;;;;;;5115908;28;20063;-59
2021/12/13 04:46:40;;;;;;;6.28;3.10;;;8.80;99.90;;;;;;5115670;28;20118;-59
2021/12/13 04:49:16;;;;;;;4.40;2.05;;;8.80;99.90;;;;;;5115806;28;20063;-59
2021/12/13 04:51:52;;;;;;;3.70;2.28;;;8.80;99.90;;;;;;5115661;28;20047;-59
2021/12/13 04:54:21;;;;;;;;;;;8.80;99.90;;;;;;5115973;28;20039;-59
2021/12/13 04:56:51;;;;;;;3.92;2.13;;;8.80;99.90;;;;;;5115645;28;20281;-59
2021/12/13 04:59:19;;;;;;;4.25;2.20;;;8.70;99.90;;;;;;5097299;28;20040;-59
2021/12/13 05:01:51;;;;;;;5.30;3.47;;;8.60;99.90;;;;;;5097371;28;20043;-59
2021/12/13 05:04:23;;;;;;;4.97;1.77;;;8.70;99.90;;;;;;5115318;28;20369;-59
2021/12/13 05:06:52;;;;;;;4.90;2.10;;;8.70;99.90;;;;;;5097130;28;20116;-59
2021/12/13 05:09:23;;;;;;;5.97;2.22;;;8.70;99.90;;;;;;5115329;28;20122;-59
2021/12/13 05:11:53;;;;;;;4.28;2.22;;;8.80;99.90;;;;;;5079995;28;20043;-59
2021/12/13 05:14:34;;;;;;;5.50;2.72;;;8.90;99.90;;;;;;5115169;28;20492;-59
2021/12/13 05:17:33;;;;;;;4.53;2.10;;;8.90;99.90;;;;;;5097206;28;20051;-59
2021/12/13 05:20:14;;;;;;;3.95;2.22;;;8.90;99.90;;;;;;5079124;28;20054;-59
2021/12/13 05:22:51;;;;;;;2.55;1.73;;;8.90;99.90;;;;;;5096741;28;20036;-59
2021/12/13 05:25:41;;;;;;;4.57;2.42;;;8.90;99.90;;;;;;5114981;28;20045;-59
2021/12/13 05:28:11;;;;;;;2.80;1.88;;;8.90;99.90;;;;;;5096476;28;20500;-59
2021/12/13 05:30:48;;;;;;;3.63;1.95;;;8.90;99.90;;;;;;5096666;28;20043;-59
2021/12/13 05:33:19;;;;;;;3.33;2.20;;;8.90;99.90;;;;;;5079948;28;20366;-59
2021/12/13 05:35:52;;;;;;;5.97;1.80;;;8.90;99.90;;;;;;5079921;28;20040;-59
2021/12/13 05:38:42;;;;;;;3.83;1.90;;;8.90;99.90;;;;;;5115095;28;20540;-59
2021/12/13 05:41:19;;;;;;;3.15;2.00;;;9.00;99.90;;;;;;5080193;28;20042;-60
2021/12/13 05:43:50;;;;;;;3.88;2.28;;;9.00;99.90;;;;;;5114587;28;20066;-59
2021/12/13 05:46:23;;;;;;;5.55;1.77;;;9.10;99.90;;;;;;5079607;28;20082;-59
2021/12/13 05:48:55;;;;;;;3.20;1.90;;;9.10;99.90;;;;;;5079833;28;20044;-59
2021/12/13 05:51:25;;;;;;;3.40;2.33;;;9.20;99.90;;;;;;5114138;28;20079;-59
2021/12/13 05:54:08;;;;;;;3.80;2.20;;;9.30;99.90;;;;;;5114409;28;20039;-59
2021/12/13 05:56:44;;;;;;;5.00;1.48;;;9.30;99.90;;;;;;5096893;28;20138;-59
2021/12/13 05:59:20;;;;;;;4.10;2.05;;;9.30;99.90;;;;;;5114751;28;20114;-59
2021/12/13 06:02:03;;;;;;;4.20;1.70;;;9.30;99.90;;;;;;5096298;28;20074;-59
2021/12/13 06:04:33;;;;;;;3.00;1.95;;;9.30;99.90;;;;;;5096020;28;20071;-59
2021/12/13 06:07:10;;;;;;;4.05;2.05;;;9.30;99.90;;;;;;5096240;28;20066;-59
2021/12/13 06:10:04;;;;;;;3.97;1.63;;;9.30;99.90;;;;;;5114182;28;20042;-59
2021/12/13 06:12:52;;;;;;;2.28;1.60;;;9.40;99.90;;;;;;5102205;28;20085;-60
2021/12/13 06:15:20;;;;;;;3.97;1.83;;;9.40;99.90;;;;;;5096284;28;20035;-59
2021/12/13 06:18:03;;;;;;;3.40;1.73;;;9.40;99.90;;;;;;5114168;28;20101;-60
2021/12/13 06:20:43;;;;;;;3.05;1.75;;;9.40;99.90;;;;;;5114150;28;20617;-59
2021/12/13 06:23:16;;;;;;;2.67;1.70;;;9.40;99.90;;;;;;5095917;28;20110;-59
2021/12/13 06:25:47;;;;;;;2.60;1.90;;;9.40;99.90;;;;;;5114076;28;20432;-59
2021/12/13 06:28:31;;;;;;;7.22;1.98;;;9.40;99.90;;;;;;5095597;28;20369;-60
2021/12/13 06:31:12;;;;;;;3.03;1.65;;;9.60;99.90;;;;;;5098669;28;20040;-59
2021/12/13 06:33:59;;;;;;;2.67;1.80;;;10.10;99.90;;;;;;5083376;28;20044;-60
2021/12/13 06:36:37;;;;;;;3.60;1.83;;;10.80;99.90;;;;;;5118027;28;20031;-60
2021/12/13 06:39:10;;;;;;;4.07;1.75;;;11.00;99.90;;;;;;5118161;28;20040;-59
2021/12/13 06:41:40;;;;;;;3.28;2.22;;;10.80;99.90;;;;;;5118208;28;20067;-59
2021/12/13 06:44:31;;;;;;;2.88;1.75;;;10.60;99.90;;;;;;5118243;28;20047;-60
2021/12/13 06:47:06;;;;;;;2.50;1.42;;;10.40;99.90;;;;;;5099679;28;20056;-59
2021/12/13 06:49:45;;;;;;;6.22;1.88;;;10.20;99.90;;;;;;5099660;28;20040;-59
2021/12/13 06:52:13;;;;;;;3.25;1.67;;;10.10;99.90;;;;;;5117711;28;20044;-60
2021/12/13 06:54:43;;;;;;;2.75;1.42;;;10.00;99.90;;;;;;5099618;28;20499;-59
2021/12/13 06:57:15;;;;;;;3.35;1.70;;;9.90;99.90;;;;;;5117754;28;20077;-60
2021/12/13 07:00:00;;;;;;;3.80;1.95;;;10.10;99.90;;;;;;5100004;28;20042;-59
2021/12/13 07:02:41;;;;;;;4.47;1.70;;;10.10;99.90;;;;;;5099823;28;20040;-60
2021/12/13 07:05:18;;;;;;;4.78;2.88;;;10.10;99.90;;;;;;5117801;28;20066;-60
2021/12/13 07:08:10;;;;;;;4.65;3.20;;;10.00;99.90;;;;;;5099717;28;20040;-59
2021/12/13 07:10:53;;;;;;;5.38;1.92;;;10.00;99.90;;;;;;5117732;28;20039;-59
2021/12/13 07:14:01;;;;;;;7.53;2.90;;;9.90;99.90;;;;;;5117552;28;20043;-59
2021/12/13 07:16:33;;;;;;;3.42;2.10;;;9.90;99.90;;;;;;5068184;28;20077;-60
2021/12/13 07:19:20;;;;;;;3.78;2.72;;;9.80;99.90;;;;;;5117395;28;20036;-59
2021/12/13 07:21:48;;;;;;;;;;;9.80;99.90;;;;;;5100155;28;20046;-59
2021/12/13 07:24:32;;;;;;;3.63;1.83;;;9.90;99.90;;;;;;5117454;28;20310;-59
2021/12/13 07:27:05;;;;;;;4.13;1.70;;;10.00;99.90;;;;;;5065858;28;20436;-59
2021/12/13 07:29:37;;;;;;;3.75;2.17;;;10.00;99.90;;;;;;5081937;28;20047;-59
2021/12/13 07:32:23;;;;;;;4.95;2.50;;;10.00;99.90;;;;;;5098195;28;20044;-59
2021/12/13 07:35:34;;;;;;;3.33;2.40;;;10.00;99.90;;;;;;5082199;28;20027;-59
2021/12/13 07:38:11;;;;;;;5.10;2.28;;;10.00;99.90;;;;;;5086901;28;20497;-59
2021/12/13 07:40:56;;;;;;;10.32;4.00;;;10.00;99.90;;;;;;5098660;28;20051;-59
2021/12/13 07:43:32;;;;;;;4.80;2.35;;;10.00;99.90;;;;;;5098781;28;20042;-59
2021/12/13 07:46:06;;;;;;;4.35;2.00;;;10.00;99.90;;;;;;5099161;28;20070;-60
2021/12/13 07:48:51;;;;;;;5.07;2.63;;;10.00;99.90;;;;;;5081995;28;20071;-59
2021/12/13 07:51:27;;;;;;;6.07;3.40;;;9.90;99.90;;;;;;5098882;28;20039;-59
2021/12/13 07:53:58;;;;;;;5.55;3.38;;;9.90;99.90;;;;;;5116931;28;20414;-59
2021/12/13 07:56:25;;;;;;;5.05;3.03;;;9.90;99.90;;;;;;5098492;28;20035;-60
2021/12/13 07:59:08;;;;;;;3.83;2.13;;;9.90;99.90;;;;;;5116593;28;20043;-59
2021/12/13 08:01:49;;;;;;;4.93;2.17;;;9.90;99.90;;;;;;5116611;28;20027;-59
2021/12/13 08:04:22;;;;;;;4.72;2.33;;;9.90;99.90;;;;;;5098653;28;20390;-60
2021/12/13 08:06:54;;;;;;;3.65;2.28;;;10.00;99.90;;;;;;5098532;28;20419;-59
2021/12/13 08:09:27;;;;;;;3.90;2.78;;;9.90;99.90;;;;;;5098360;28;20411;-59
2021/12/13 08:12:04;;;;;;;6.45;2.30;;;10.00;99.90;;;;;;5097969;28;20385;-59
2021/12/13 08:14:39;;;;;;;5.85;2.25;;;10.00;99.90;;;;;;5098172;28;20035;-59
2021/12/13 08:17:19;;;;;;;5.50;2.72;;;10.10;99.90;;;;;;5098124;28;20028;-59
2021/12/13 08:19:58;;;;;;;4.28;1.98;;;10.20;99.90;;;;;;5081396;28;20047;-59
2021/12/13 08:22:28;;;;;;;3.80;1.98;;;10.70;99.90;;;;;;5098036;28;20058;-59
2021/12/13 08:25:09;;;;;;;4.82;2.35;;;11.30;99.90;;;;;;5116134;28;20489;-59
2021/12/13 08:27:43;;;;;;;4.47;1.92;;;11.60;99.90;;;;;;5097950;28;20040;-60
2021/12/13 08:30:13;;;;;;;3.90;1.88;;;11.60;99.90;;;;;;5115937;28;20485;-60
2021/12/13 08:33:00;;;;;;;4.97;2.65;;;11.60;99.90;;;;;;5097957;28;20130;-60
2021/12/13 08:35:44;;;;;;;;;;;11.50;99.90;;;;;;5098540;28;20067;-60
2021/12/13 08:38:33;;;;;;;4.18;2.53;;;11.40;99.90;;;;;;5097429;28;20006;-60
2021/12/13 08:41:26;;;;;;;3.03;2.05;;;11.30;99.90;;;;;;5097856;28;20039;-59
2021/12/13 08:44:12;;;;;;;3.00;1.80;;;11.10;99.90;;;;;;5115675;28;20062;-60
2021/12/13 08:46:43;;;;;;;4.05;2.03;;;11.00;99.90;;;;;;5097667;28;20484;-59
2021/12/13 08:49:16;;;;;;;4.05;2.35;;;11.00;99.90;;;;;;5115528;28;20527;-60
2021/12/13 08:52:03;;;;;;;4.07;1.95;;;11.00;99.90;;;;;;5097489;28;20101;-59
2021/12/13 08:55:06;;;;;;;4.53;2.30;;;10.90;99.90;;;;;;5097060;28;20153;-59
2021/12/13 08:57:37;;;;;;;3.95;1.90;;;10.90;99.90;;;;;;5097435;28;20040;-59
2021/12/13 09:00:14;;;;;;;4.47;2.25;;;10.80;99.90;;;;;;5115424;28;20032;-60
2021/12/13 09:02:46;;;;;;;5.10;2.10;;;10.70;99.90;;;;;;5115245;28;20119;-59
2021/12/13 09:05:20;;;;;;;3.88;2.00;;;10.60;99.90;;;;;;5115318;28;20119;-59
2021/12/13 09:07:51;;;;;;;2.40;1.60;;;10.60;99.90;;;;;;5097575;28;20078;-59
2021/12/13 09:10:21;;;;;;;4.07;2.30;;;10.60;99.90;;;;;;5115260;28;20041;-59
2021/12/13 09:12:57;;;;;;;3.28;1.80;;;10.60;99.90;;;;;;5115252;28;20381;-59
2021/12/13 09:15:30;;;;;;;3.20;1.50;;;10.50;99.90;;;;;;5115071;28;20063;-60
2021/12/13 09:17:58;;;;;;;7.18;2.40;;;10.50;99.90;;;;;;5115198;28;20067;-59
2021/12/13 09:20:41;;;;;;;4.53;2.05;;;10.60;99.90;;;;;;5096378;28;20130;-59
2021/12/13 09:23:16;;;;;;;3.20;2.03;;;10.50;99.90;;;;;;5115203;28;20046;-60
2021/12/13 09:25:50;;;;;;;6.43;3.33;;;10.50;99.90;;;;;;5114777;28;20027;-59
2021/12/13 09:28:25;;;;;;;5.50;3.08;;;10.50;99.90;;;;;;5096744;28;20040;-60
2021/12/13 09:30:57;;;;;;;6.00;1.88;;;10.50;99.90;;;;;;5095332;28;20049;-60
2021/12/13 09:33:37;;;;;;;5.63;2.33;;;10.50;99.90;;;;;;5096366;28;20047;-60
2021/12/13 09:36:10;;;;;;;5.05;1.85;;;10.60;99.90;;;;;;5079851;28;20055;-61
2021/12/13 09:39:01;;;;;;;4.22;1.90;;;10.60;99.90;;;;;;5114489;28;20503;-59
2021/12/13 09:41:46;;;;;;;3.20;1.70;;;10.80;99.90;;;;;;5096512;28;20055;-59
2021/12/13 09:44:30;;;;;;;3.92;2.00;;;10.80;99.90;;;;;;5096152;28;20035;-60
2021/12/13 09:47:04;;;;;;;5.00;2.10;;;10.90;99.90;;;;;;5114055;28;20027;-59
2021/12/13 09:49:37;;;;;;;5.43;2.55;;;11.20;99.90;;;;;;5114239;28;20036;-59
2021/12/13 09:52:11;;;;;;;5.65;1.98;;;11.20;99.90;;;;;;5079306;28;20100;-59
2021/12/13 09:54:48;;;;;;;3.42;2.40;;;11.20;99.90;;;;;;5114531;28;20028;-59
2021/12/13 09:57:22;;;;;;;3.15;2.00;;;11.20;99.90;;;;;;5054607;28;20039;-59
2021/12/13 10:00:09;;;;;;;4.57;2.05;;;11.20;99.90;;;;;;5114249;28;20380;-60
2021/12/13 10:02:41;;;;;;;4.63;2.92;;;11.10;99.90;;;;;;5114268;28;20067;-60
2021/12/13 10:05:16;;;;;;;4.30;2.22;;;11.10;99.90;;;;;;5113851;28;20036;-60
2021/12/13 10:07:50;;;;;;;20.05;9.98;;;11.10;99.90;;;;;;5095783;28;20397;-60
2021/12/13 10:10:26;;;;;;;7.40;4.78;;;11.00;99.90;;;;;;5113984;28;20084;-60
2021/12/13 10:13:03;;;;;;;6.65;3.03;;;11.00;99.90;;;;;;5079004;28;20039;-59
2021/12/13 10:15:41;;;;;;;7.43;3.28;;;11.00;99.90;;;;;;5114068;28;20035;-60
2021/12/13 10:18:14;;;;;;;6.38;3.25;;;10.90;99.90;;;;;;5114215;28;20047;-60
2021/12/13 10:20:49;;;;;;;6.82;2.95;;;10.90;99.90;;;;;;5096277;28;20035;-59
2021/12/13 10:23:20;;;;;;;5.82;2.80;;;10.90;99.90;;;;;;5114283;28;20043;-60
2021/12/13 10:25:50;;;;;;;5.70;3.20;;;10.80;99.90;;;;;;5096175;28;20028;-60
2021/12/13 10:28:22;;;;;;;7.85;3.47;;;10.70;99.90;;;;;;5078992;28;20382;-59
2021/12/13 10:31:03;;;;;;;7.60;3.20;;;10.70;99.90;;;;;;5113918;28;20050;-60
2021/12/13 10:33:32;;;;;;;4.72;3.08;;;10.80;99.90;;;;;;5113986;28;20081;-60
2021/12/13 10:36:02;;;;;;;6.30;3.15;;;10.80;99.90;;;;;;5113854;28;20039;-60
2021/12/13 10:38:38;;;;;;;6.32;3.35;;;10.90;99.90;;;;;;5113777;28;20115;-60
2021/12/13 10:41:17;;;;;;;5.88;2.92;;;10.90;99.90;;;;;;5113952;28;20054;-60
2021/12/13 10:43:50;;;;;;;5.93;3.35;;;11.00;99.90;;;;;;5113755;28;20036;-60
2021/12/13 10:46:32;;;;;;;6.07;3.80;;;11.10;99.90;;;;;;5113759;28;20136;-60
2021/12/13 10:49:09;;;;;;;6.55;3.67;;;11.30;99.90;;;;;;5078480;28;20087;-60
2021/12/13 10:51:40;;;;;;;6.15;3.95;;;11.30;99.90;;;;;;5113415;28;20399;-60
2021/12/13 10:54:13;;;;;;;6.40;3.47;;;11.40;99.90;;;;;;5113785;28;20040;-59
2021/12/13 10:56:47;;;;;;;8.15;3.25;;;11.30;99.90;;;;;;5095747;28;20035;-59
2021/12/13 10:59:23;;;;;;;5.07;3.30;;;11.30;99.90;;;;;;5113719;28;20035;-59
2021/12/13 11:01:55;;;;;;;6.05;3.00;;;11.40;99.90;;;;;;5113676;28;20032;-60
2021/12/13 11:04:33;;;;;;;6.47;3.50;;;11.30;99.90;;;;;;5095649;28;20118;-59
2021/12/13 11:07:03;;;;;;;3.17;1.70;;;11.40;99.90;;;;;;5113842;28;20473;-60
2021/12/13 11:09:31;;;;;;;4.38;1.58;;;11.30;99.90;;;;;;5095894;28;20044;-60
2021/12/13 11:12:07;;;;;;;3.88;1.70;;;11.20;99.90;;;;;;5095112;28;20044;-60
2021/12/13 11:14:41;;;;;;;2.25;1.75;;;11.40;99.90;;;;;;5113741;28;20036;-60
2021/12/13 11:17:20;;;;;;;5.97;1.90;;;11.40;99.90;;;;;;5116181;28;20036;-60
2021/12/13 11:19:51;;;;;;;5.53;2.72;;;11.50;99.90;;;;;;5117221;28;20043;-60
2021/12/13 11:22:24;;;;;;;2.85;1.85;;;11.60;99.90;;;;;;5098966;28;20354;-60
2021/12/13 11:24:54;;;;;;;3.05;1.30;;;11.60;99.70;;;;;;5082166;28;20039;-60
2021/12/13 11:27:30;;;;;;;2.70;2.40;;;11.70;99.70;;;;;;5099512;28;20035;-60
2021/12/13 11:30:01;;;;;;;3.78;1.40;;;11.60;99.90;;;;;;5098922;28;20569;-60
2021/12/13 11:32:35;;;;;;;3.42;2.10;;;11.60;99.90;;;;;;5082315;28;20035;-60
2021/12/13 11:35:09;;;;;;;3.92;2.28;;;11.70;99.90;;;;;;5099308;28;20373;-60
2021/12/13 11:38:14;;;;;;;4.13;2.13;;;11.80;99.90;;;;;;5099011;28;20039;-60
2021/12/13 11:41:27;;;;;;;4.43;2.33;;;12.10;99.90;;;;;;5098650;28;20150;-60
2021/12/13 11:44:31;;;;;;;3.60;2.60;;;12.20;99.60;;;;;;5079107;28;20044;-60
2021/12/13 11:47:12;;;;;;;4.95;2.00;;;12.50;99.70;;;;;;5116665;28;20032;-60
2021/12/13 11:49:55;;;;;;;7.35;3.05;;;12.60;98.90;;;;;;5081820;28;20040;-60
2021/12/13 11:53:00;;;;;;;4.00;2.53;;;12.60;98.50;;;;;;5115416;28;20361;-60
2021/12/13 11:55:57;;;;;;;2.97;1.50;;;12.70;98.40;;;;;;5115435;28;20042;-60
2021/12/13 11:58:31;;;;;;;5.45;2.47;;;12.80;98.50;;;;;;5096756;28;20040;-60
2021/12/13 12:01:23;;;;;;;2.83;1.70;;;12.80;98.40;;;;;;5115324;28;20064;-60
2021/12/13 12:04:28;;;;;;;3.47;2.05;;;12.90;98.10;;;;;;5115462;28;20093;-60
2021/12/13 12:07:14;;;;;;;6.75;3.47;;;12.80;97.60;;;;;;5115393;28;20058;-60
2021/12/13 12:10:06;;;;;;;4.95;2.70;;;12.80;97.40;;;;;;5115275;28;20040;-59
2021/12/13 12:13:20;;;;;;;4.15;2.85;;;12.60;97.60;;;;;;5115222;28;20079;-59
2021/12/13 12:15:47;;;;;;;2.95;1.70;;;12.60;98.30;;;;;;5071993;28;20109;-59
2021/12/13 12:18:20;;;;;;;2.60;1.98;;;12.40;98.40;;;;;;5115176;28;20040;-60
2021/12/13 12:21:12;;;;;;;5.45;2.13;;;12.30;98.50;;;;;;5097094;28;20071;-59
2021/12/13 12:23:42;;;;;;;2.85;2.08;;;12.30;98.80;;;;;;5115058;28;20478;-60
2021/12/13 12:26:12;;;;;;;4.13;1.90;;;12.30;99.20;;;;;;5115134;28;20036;-60
2021/12/13 12:28:42;;;;;;;2.97;1.45;;;12.30;99.30;;;;;;5113690;28;20358;-60
2021/12/13 12:31:11;;;;;;;5.25;1.83;;;12.30;99.20;;;;;;5115105;28;20131;-60
2021/12/13 12:33:40;;;;;;;3.00;1.73;;;12.50;99.20;;;;;;5096644;28;20044;-60
2021/12/13 12:36:23;;;;;;;5.38;2.03;;;12.60;99.20;;;;;;5114673;28;20035;-60
2021/12/13 12:39:00;;;;;;;5.50;2.20;;;12.50;98.90;;;;;;5114949;28;20481;-60
2021/12/13 12:41:46;;;;;;;;;;;12.60;99.00;;;;;;5115347;28;20043;-60
2021/12/13 12:44:31;;;;;;;6.18;2.97;;;12.60;99.10;;;;;;5098443;28;19964;-60
2021/12/13 12:46:59;;;;;;;6.00;3.70;;;12.50;99.00;;;;;;5114608;28;20040;-60
2021/12/13 12:49:27;;;;;;;6.40;3.30;;;12.30;99.00;;;;;;5114711;28;20047;-60
2021/12/13 12:52:03;;;;;;;5.65;2.92;;;12.20;99.00;;;;;;5046947;28;1424143;-60
2021/12/13 12:54:36;;;;;;;3.90;2.60;;;12.20;98.90;;;;;;5115407;28;20622;-60
2021/12/13 12:57:05;;;;;;;3.85;2.58;;;12.10;98.80;;;;;;5115263;28;20039;-60
2021/12/13 12:59:38;;;;;;;6.55;2.83;;;12.10;98.70;;;;;;5115146;28;20074;-60
2021/12/13 13:02:10;;;;;;;4.25;2.45;;;12.00;99.10;;;;;;5115184;28;20080;-60
2021/12/13 13:04:53;;;;;;;4.65;2.83;;;12.10;99.00;;;;;;5115137;28;20062;-60
2021/12/13 13:07:32;;;;;;;6.03;2.28;;;11.90;99.10;;;;;;5114860;28;20505;-59
2021/12/13 13:10:23;;;;;;;4.40;2.00;;;11.90;98.50;;;;;;5097040;28;20059;-60
2021/12/13 13:12:55;;;;;;;6.13;2.05;;;11.80;98.50;;;;;;5115251;28;20067;-60
2021/12/13 13:15:32;;;;;;;3.90;1.92;;;11.90;98.50;;;;;;5096751;28;20040;-60
2021/12/13 13:18:08;;;;;;;4.63;2.05;;;11.90;98.70;;;;;;5096381;28;20135;-60
2021/12/13 13:20:50;;;;;;;13.40;2.58;;;12.00;99.00;;;;;;5114866;28;20218;-60
2021/12/13 13:23:23;;;;;;;4.40;1.83;;;12.10;98.90;;;;;;5115001;28;20040;-60
2021/12/13 13:25:56;;;;;;;7.20;2.20;;;12.20;98.80;;;;;;5114575;28;20039;-60
2021/12/13 13:28:28;;;;;;;5.47;2.13;;;12.20;98.40;;;;;;5114934;28;20088;-60
2021/12/13 13:30:56;;;;;;;4.00;1.95;;;12.10;97.70;;;;;;5114864;28;20070;-59
2021/12/13 13:33:53;;;;;;;5.88;2.30;;;12.10;97.60;;;;;;5114646;28;20044;-59
2021/12/13 13:36:36;;;;;;;3.75;2.53;;;12.10;97.70;;;;;;5093802;28;20039;-59
2021/12/13 13:39:17;;;;;;;5.93;2.78;;;12.00;97.80;;;;;;5096380;28;20039;-60
2021/12/13 13:41:48;;;;;;;2.85;1.77;;;11.90;98.00;;;;;;5095948;28;20036;-60
2021/12/13 13:44:22;;;;;;;2.13;1.88;;;11.90;98.00;;;;;;5096263;28;20603;-60
2021/12/13 13:47:02;;;;;;;3.35;2.05;;;11.80;98.10;;;;;;5114508;28;20481;-60
2021/12/13 13:49:31;;;;;;;3.42;1.90;;;11.80;98.00;;;;;;5096400;28;20036;-60
2021/12/13 13:52:29;;;;;;;6.95;2.63;;;11.80;98.10;;;;;;5096049;28;20100;-60